»·PEaware :: DAL2295 KSAN-KSLC

DAL2295 :: KSAN-KSLC

FLIGHT INFORMATION

Flight Status: Arrived
Operator:
Delta Air Lines
More flights by this operator :: More flights under this callsign
Pilot: Colin A. (19898)
Aircraft: MCDONNELL-DOUGLAS MD-82
(MD82)
More flights by this aircraft type
Origin: KSAN San Diego Intl-Lindbergh
United States
Destination: KSLC Salt Lake City Intl
United States
More flights between these airports :: More routes between these airports
Route: ZZOOO2 MTBAL AVRRY CADEZ HAKMN Q73 LAKRR MLF QWENN5
File this flight plan on PilotEdge
Remarks: PBN / A1B2 DOF / 180804 REG / N882SB EET / KZLC0054 OPR / DAL PER / C RMK / TCAS SIMBRIEF
Altitude:
(Current/Filed)
37,000ft
Speed:
(Current/Filed)
446kts
Departed: 04-Aug-18 04:17 PM
Arrived: 04-Aug-18 05:42 PM
Distance/Time
Traveled:
544nm/1:24
Distance/Time
To Go:
Arrived

Flight Plot

Page will automatically refresh every two minutes.

Flight plan parsing failed; only flown route is shown


Map Options




Map Legend


Flown Route
Filed Route
Departure Airport
Arrival Airport
Navaid (VOR, NDB)
Fix

Horizontal Profiles

Position Reports

Time Latitude Longitude Heading Altitude Ground
Speed
04-Aug-18 15:59 32.733378 -117.203412 265 24ft 0kts
04-Aug-18 16:00 32.733378 -117.203412 265 24ft 0kts
04-Aug-18 16:01 32.733378 -117.203412 265 24ft 0kts
04-Aug-18 16:02 32.733378 -117.203412 265 24ft 0kts
04-Aug-18 16:03 32.733378 -117.203412 265 24ft 0kts
04-Aug-18 16:04 32.733378 -117.203412 265 24ft 0kts
04-Aug-18 16:05 32.733378 -117.203412 265 24ft 0kts
04-Aug-18 16:06 32.733378 -117.203412 265 24ft 0kts
04-Aug-18 16:07 32.733378 -117.203412 265 24ft 0kts
04-Aug-18 16:08 32.733378 -117.203412 265 24ft 0kts
04-Aug-18 16:09 32.733414 -117.202899 278 24ft 2kts
04-Aug-18 16:10 32.733151 -117.202625 345 24ft 0kts
04-Aug-18 16:11 32.733154 -117.202625 345 24ft 0kts
04-Aug-18 16:12 32.733228 -117.202649 344 24ft 1kts
04-Aug-18 16:13 32.734866 -117.199247 107 24ft 29kts
04-Aug-18 16:14 32.733385 -117.193097 104 24ft 21kts
04-Aug-18 16:15 32.730349 -117.180648 107 24ft 35kts
04-Aug-18 16:16 32.729522 -117.176864 84 24ft 0kts
04-Aug-18 16:17 32.729981 -117.175914 358 24ft 10kts
04-Aug-18 16:18 32.733815 -117.190512 286 27ft 153kts
04-Aug-18 16:19 32.750055 -117.256606 285 2172ft 243kts
04-Aug-18 16:20 32.740312 -117.331397 212 2982ft 259kts
04-Aug-18 16:21 32.678073 -117.302887 131 4127ft 270kts
04-Aug-18 16:22 32.634786 -117.230196 105 6168ft 278kts
04-Aug-18 16:23 32.621794 -117.137643 97 8053ft 290kts
04-Aug-18 16:24 32.613160 -117.040978 97 9956ft 300kts
04-Aug-18 16:25 32.603943 -116.936268 98 11078ft 336kts
04-Aug-18 16:26 32.617982 -116.822603 76 12408ft 361kts
04-Aug-18 16:27 32.682299 -116.735902 21 13812ft 372kts
04-Aug-18 16:28 32.781062 -116.694985 15 15208ft 381kts
04-Aug-18 16:29 32.881963 -116.650579 18 16521ft 393kts
04-Aug-18 16:30 32.984853 -116.600648 18 18058ft 404kts
04-Aug-18 16:31 33.090178 -116.547752 20 19579ft 417kts
04-Aug-18 16:32 33.197205 -116.491572 20 20990ft 426kts
04-Aug-18 16:33 33.307211 -116.433256 20 22293ft 437kts
04-Aug-18 16:34 33.417302 -116.368163 38 23522ft 453kts
04-Aug-18 16:35 33.493538 -116.245993 59 24737ft 465kts
04-Aug-18 16:36 33.563255 -116.113617 55 25871ft 474kts
04-Aug-18 16:37 33.632224 -115.977475 68 26939ft 482kts
04-Aug-18 16:38 33.676407 -115.824491 73 27864ft 489kts
04-Aug-18 16:39 33.721985 -115.669663 70 28728ft 496kts
04-Aug-18 16:40 33.799211 -115.535595 27 29452ft 495kts
04-Aug-18 16:41 33.925272 -115.475200 11 30274ft 486kts
04-Aug-18 16:42 34.053196 -115.422032 15 31103ft 489kts
04-Aug-18 16:43 34.179774 -115.359991 17 31985ft 489kts
04-Aug-18 16:44 34.308806 -115.317043 0 32768ft 475kts
04-Aug-18 16:45 34.439428 -115.296510 359 33537ft 473kts
04-Aug-18 16:46 34.569573 -115.272358 1 34244ft 474kts
04-Aug-18 16:47 34.699979 -115.246318 1 34892ft 473kts
04-Aug-18 16:48 34.829293 -115.219882 1 35564ft 470kts
04-Aug-18 16:49 34.958387 -115.193150 0 36111ft 469kts
04-Aug-18 16:50 35.087360 -115.167902 0 36618ft 470kts
04-Aug-18 16:51 35.216860 -115.140792 1 36915ft 476kts
04-Aug-18 16:52 35.348538 -115.113277 0 36921ft 480kts
04-Aug-18 16:53 35.481565 -115.086616 2 36928ft 490kts
04-Aug-18 16:54 35.597953 -114.989789 48 36936ft 529kts
04-Aug-18 16:55 35.687639 -114.844686 50 36929ft 536kts
04-Aug-18 16:56 35.783453 -114.703805 46 36920ft 534kts
04-Aug-18 16:57 35.882640 -114.567989 45 36919ft 534kts
04-Aug-18 16:58 35.982201 -114.432426 45 36932ft 533kts
04-Aug-18 16:59 36.081304 -114.295686 41 36936ft 530kts
04-Aug-18 17:00 36.205923 -114.207781 14 36942ft 514kts
04-Aug-18 17:01 36.340185 -114.146730 14 36964ft 512kts
04-Aug-18 17:02 36.472165 -114.078460 17 36965ft 517kts
04-Aug-18 17:03 36.603416 -114.005865 18 36966ft 516kts
04-Aug-18 17:04 36.734602 -113.933050 18 36962ft 514kts
04-Aug-18 17:05 36.865390 -113.860423 18 36969ft 515kts
04-Aug-18 17:06 36.996208 -113.788075 18 36971ft 513kts
04-Aug-18 17:07 37.127050 -113.715915 18 36966ft 514kts
04-Aug-18 17:08 37.258145 -113.643021 18 36969ft 514kts
04-Aug-18 17:09 37.388685 -113.569466 19 36998ft 515kts
04-Aug-18 17:10 37.519075 -113.495606 18 37037ft 514kts
04-Aug-18 17:11 37.650086 -113.422723 19 37063ft 516kts
04-Aug-18 17:12 37.780494 -113.348532 19 37070ft 514kts
04-Aug-18 17:13 37.910865 -113.274057 19 37068ft 514kts
04-Aug-18 17:14 38.040993 -113.198446 22 37060ft 516kts
04-Aug-18 17:15 38.169459 -113.118059 20 37045ft 512kts
04-Aug-18 17:16 38.299866 -113.044789 18 37041ft 510kts
04-Aug-18 17:17 38.430901 -112.976181 17 37033ft 509kts
04-Aug-18 17:18 38.562899 -112.906871 18 35837ft 517kts
04-Aug-18 17:19 38.692906 -112.837564 18 33841ft 499kts
04-Aug-18 17:20 38.819177 -112.769966 19 31840ft 484kts
04-Aug-18 17:21 38.941534 -112.703930 19 29837ft 469kts
04-Aug-18 17:22 39.059760 -112.639262 20 27873ft 454kts
04-Aug-18 17:23 39.174581 -112.576889 20 26071ft 441kts
04-Aug-18 17:24 39.286033 -112.516643 21 24272ft 428kts
04-Aug-18 17:25 39.393839 -112.455934 22 22478ft 416kts
04-Aug-18 17:26 39.497729 -112.394888 23 20684ft 403kts
04-Aug-18 17:27 39.598332 -112.336683 22 19187ft 385kts
04-Aug-18 17:28 39.695710 -112.280433 23 18184ft 379kts
04-Aug-18 17:29 39.791047 -112.225358 23 17185ft 372kts
04-Aug-18 17:30 39.884613 -112.170751 24 16182ft 363kts
04-Aug-18 17:31 39.960726 -112.125698 24 15350ft 358kts
04-Aug-18 17:32 40.065203 -112.063121 25 14663ft 349kts
04-Aug-18 17:33 40.151437 -112.010809 25 13062ft 335kts
04-Aug-18 17:34 40.220674 -111.968626 26 11725ft 323kts
04-Aug-18 17:35 40.301498 -111.932160 5 11105ft 297kts
04-Aug-18 17:36 40.396538 -111.926204 358 11096ft 295kts
04-Aug-18 17:37 40.465375 -111.935275 352 10893ft 299kts
04-Aug-18 17:38 40.547235 -111.946990 354 9118ft 292kts
04-Aug-18 17:39 40.627942 -111.955711 355 7123ft 288kts
04-Aug-18 17:40 40.697511 -111.964143 355 5682ft 207kts
04-Aug-18 17:41 40.748266 -111.970121 356 4822ft 157kts
04-Aug-18 17:42 40.788358 -111.974568 354 4236ft 101kts
04-Aug-18 17:43 40.795169 -111.976348 318 4236ft 0kts
04-Aug-18 17:44 40.795924 -111.977066 328 4236ft 3kts
04-Aug-18 17:45 40.792291 -111.977313 198 4236ft 16kts
04-Aug-18 17:46 40.788685 -111.979424 135 4236ft 8kts
04-Aug-18 17:47 40.788492 -111.979009 119 4236ft 0kts
04-Aug-18 17:48 40.788492 -111.979009 119 4236ft 0kts
04-Aug-18 17:49 40.788492 -111.979009 119 4236ft 0kts
04-Aug-18 17:50 40.788492 -111.979009 119 4236ft 0kts
04-Aug-18 17:51 40.788492 -111.979009 119 4236ft 0kts
04-Aug-18 17:52 40.788492 -111.979009 119 4236ft 0kts
04-Aug-18 17:53 40.788492 -111.979009 119 4236ft 0kts
04-Aug-18 17:54 40.788492 -111.979009 119 4236ft 0kts
04-Aug-18 17:55 40.788492 -111.979009 119 4236ft 0kts
04-Aug-18 17:56 40.788492 -111.979009 119 4236ft 0kts
04-Aug-18 17:57 40.788492 -111.979009 119 4236ft 0kts

Navigation Log

Ident Type
Flight plan parsing failed, navigation log unavailable